sensor_id;sensor_type;location;lat;lon;timestamp;P1;durP1;ratioP1;P2;durP2;ratioP2
66609;SDS011;53468;48.276;14.416;2022-12-01T00:00:09;12.45;;;6.28;;
66609;SDS011;53468;48.276;14.416;2022-12-01T00:05:43;8.63;;;4.80;;
66609;SDS011;53468;48.276;14.416;2022-12-01T00:11:16;11.65;;;5.47;;
66609;SDS011;53468;48.276;14.416;2022-12-01T00:16:48;13.18;;;6.40;;
66609;SDS011;53468;48.276;14.416;2022-12-01T00:22:20;14.80;;;6.13;;
66609;SDS011;53468;48.276;14.416;2022-12-01T00:27:54;17.50;;;7.93;;
66609;SDS011;53468;48.276;14.416;2022-12-01T00:33:26;13.73;;;7.47;;
66609;SDS011;53468;48.276;14.416;2022-12-01T00:38:58;11.68;;;6.68;;
66609;SDS011;53468;48.276;14.416;2022-12-01T00:44:32;16.48;;;8.18;;
66609;SDS011;53468;48.276;14.416;2022-12-01T00:50:04;11.40;;;6.28;;
66609;SDS011;53468;48.276;14.416;2022-12-01T00:55:37;15.30;;;6.75;;
66609;SDS011;53468;48.276;14.416;2022-12-01T01:01:11;12.85;;;6.35;;
66609;SDS011;53468;48.276;14.416;2022-12-01T01:06:43;13.13;;;6.50;;
66609;SDS011;53468;48.276;14.416;2022-12-01T01:12:16;12.43;;;6.22;;
66609;SDS011;53468;48.276;14.416;2022-12-01T01:17:50;9.63;;;5.05;;
66609;SDS011;53468;48.276;14.416;2022-12-01T01:23:22;10.82;;;5.82;;
66609;SDS011;53468;48.276;14.416;2022-12-01T01:28:55;10.40;;;5.28;;
66609;SDS011;53468;48.276;14.416;2022-12-01T01:34:30;10.48;;;5.10;;
66609;SDS011;53468;48.276;14.416;2022-12-01T01:40:02;14.95;;;5.90;;
66609;SDS011;53468;48.276;14.416;2022-12-01T01:45:35;13.48;;;5.63;;
66609;SDS011;53468;48.276;14.416;2022-12-01T01:51:10;13.57;;;6.70;;
66609;SDS011;53468;48.276;14.416;2022-12-01T01:56:44;14.00;;;7.35;;
66609;SDS011;53468;48.276;14.416;2022-12-01T02:02:18;15.55;;;7.40;;
66609;SDS011;53468;48.276;14.416;2022-12-01T02:07:52;14.55;;;6.60;;
66609;SDS011;53468;48.276;14.416;2022-12-01T02:13:28;12.48;;;6.82;;
66609;SDS011;53468;48.276;14.416;2022-12-01T02:19:14;19.60;;;9.40;;
66609;SDS011;53468;48.276;14.416;2022-12-01T02:25:18;15.20;;;7.65;;
66609;SDS011;53468;48.276;14.416;2022-12-01T02:30:56;18.52;;;8.07;;
66609;SDS011;53468;48.276;14.416;2022-12-01T02:36:31;20.30;;;9.57;;
66609;SDS011;53468;48.276;14.416;2022-12-01T02:42:08;16.58;;;7.43;;
66609;SDS011;53468;48.276;14.416;2022-12-01T02:48:08;15.18;;;7.60;;
66609;SDS011;53468;48.276;14.416;2022-12-01T02:53:44;16.48;;;8.25;;
66609;SDS011;53468;48.276;14.416;2022-12-01T02:59:17;15.77;;;7.88;;
66609;SDS011;53468;48.276;14.416;2022-12-01T03:04:54;16.85;;;9.13;;
66609;SDS011;53468;48.276;14.416;2022-12-01T03:10:32;21.53;;;10.97;;
66609;SDS011;53468;48.276;14.416;2022-12-01T03:16:15;23.35;;;12.25;;
66609;SDS011;53468;48.276;14.416;2022-12-01T03:22:00;33.25;;;13.55;;
66609;SDS011;53468;48.276;14.416;2022-12-01T03:27:39;25.48;;;12.80;;
66609;SDS011;53468;48.276;14.416;2022-12-01T03:33:15;27.02;;;14.27;;
66609;SDS011;53468;48.276;14.416;2022-12-01T03:38:56;31.30;;;14.80;;
66609;SDS011;53468;48.276;14.416;2022-12-01T03:44:33;33.45;;;16.23;;
66609;SDS011;53468;48.276;14.416;2022-12-01T03:50:09;39.47;;;17.27;;
66609;SDS011;53468;48.276;14.416;2022-12-01T03:55:45;36.47;;;17.25;;
66609;SDS011;53468;48.276;14.416;2022-12-01T04:01:28;36.58;;;15.43;;
66609;SDS011;53468;48.276;14.416;2022-12-01T04:07:03;42.83;;;18.13;;
66609;SDS011;53468;48.276;14.416;2022-12-01T04:12:38;36.90;;;16.90;;
66609;SDS011;53468;48.276;14.416;2022-12-01T04:18:11;39.95;;;17.15;;
66609;SDS011;53468;48.276;14.416;2022-12-01T04:23:43;33.88;;;16.67;;
66609;SDS011;53468;48.276;14.416;2022-12-01T04:29:31;35.05;;;16.65;;
66609;SDS011;53468;48.276;14.416;2022-12-01T04:35:04;32.17;;;16.00;;
66609;SDS011;53468;48.276;14.416;2022-12-01T04:40:36;41.42;;;18.75;;
66609;SDS011;53468;48.276;14.416;2022-12-01T04:46:10;34.63;;;17.30;;
66609;SDS011;53468;48.276;14.416;2022-12-01T04:51:42;40.55;;;18.73;;
66609;SDS011;53468;48.276;14.416;2022-12-01T04:57:14;39.53;;;16.80;;
66609;SDS011;53468;48.276;14.416;2022-12-01T05:02:48;46.83;;;19.75;;
66609;SDS011;53468;48.276;14.416;2022-12-01T05:08:20;44.92;;;19.65;;
66609;SDS011;53468;48.276;14.416;2022-12-01T05:13:52;41.38;;;18.83;;
66609;SDS011;53468;48.276;14.416;2022-12-01T05:19:26;42.20;;;19.73;;
66609;SDS011;53468;48.276;14.416;2022-12-01T05:25:16;48.17;;;20.07;;
66609;SDS011;53468;48.276;14.416;2022-12-01T05:30:48;41.13;;;19.70;;
66609;SDS011;53468;48.276;14.416;2022-12-01T05:36:22;42.00;;;19.60;;
66609;SDS011;53468;48.276;14.416;2022-12-01T05:41:54;41.22;;;19.23;;
66609;SDS011;53468;48.276;14.416;2022-12-01T05:47:26;43.10;;;17.33;;
66609;SDS011;53468;48.276;14.416;2022-12-01T05:53:00;46.80;;;18.88;;
66609;SDS011;53468;48.276;14.416;2022-12-01T05:58:32;38.08;;;18.75;;
66609;SDS011;53468;48.276;14.416;2022-12-01T06:04:04;47.55;;;19.55;;
66609;SDS011;53468;48.276;14.416;2022-12-01T06:09:39;41.05;;;18.50;;
66609;SDS011;53468;48.276;14.416;2022-12-01T06:15:11;49.00;;;19.23;;
66609;SDS011;53468;48.276;14.416;2022-12-01T06:21:08;44.78;;;18.65;;
66609;SDS011;53468;48.276;14.416;2022-12-01T06:33:08;43.15;;;18.77;;
66609;SDS011;53468;48.276;14.416;2022-12-01T06:38:55;42.33;;;19.25;;
66609;SDS011;53468;48.276;14.416;2022-12-01T06:44:40;45.42;;;20.20;;
66609;SDS011;53468;48.276;14.416;2022-12-01T06:50:21;44.67;;;20.50;;
66609;SDS011;53468;48.276;14.416;2022-12-01T06:56:13;43.63;;;18.90;;
66609;SDS011;53468;48.276;14.416;2022-12-01T07:08:50;41.45;;;19.42;;
66609;SDS011;53468;48.276;14.416;2022-12-01T07:14:38;48.10;;;20.23;;
66609;SDS011;53468;48.276;14.416;2022-12-01T07:20:15;44.55;;;19.02;;
66609;SDS011;53468;48.276;14.416;2022-12-01T07:32:27;48.53;;;20.55;;
66609;SDS011;53468;48.276;14.416;2022-12-01T07:38:07;42.87;;;21.47;;
66609;SDS011;53468;48.276;14.416;2022-12-01T07:50:12;49.75;;;22.83;;
66609;SDS011;53468;48.276;14.416;2022-12-01T07:56:36;49.28;;;21.08;;
66609;SDS011;53468;48.276;14.416;2022-12-01T08:02:25;47.30;;;20.65;;
66609;SDS011;53468;48.276;14.416;2022-12-01T08:08:09;47.22;;;20.38;;
66609;SDS011;53468;48.276;14.416;2022-12-01T08:14:12;49.40;;;23.13;;
66609;SDS011;53468;48.276;14.416;2022-12-01T08:19:45;48.85;;;20.15;;
66609;SDS011;53468;48.276;14.416;2022-12-01T08:25:19;46.75;;;21.35;;
66609;SDS011;53468;48.276;14.416;2022-12-01T08:30:51;48.45;;;21.45;;
66609;SDS011;53468;48.276;14.416;2022-12-01T08:36:23;47.63;;;22.23;;
66609;SDS011;53468;48.276;14.416;2022-12-01T08:41:57;52.15;;;22.90;;
66609;SDS011;53468;48.276;14.416;2022-12-01T08:47:31;50.55;;;21.60;;
66609;SDS011;53468;48.276;14.416;2022-12-01T08:54:03;39.88;;;18.70;;
66609;SDS011;53468;48.276;14.416;2022-12-01T16:34:38;50.97;;;23.52;;
66609;SDS011;53468;48.276;14.416;2022-12-01T17:39:10;44.83;;;22.00;;
66609;SDS011;53468;48.276;14.416;2022-12-01T17:51:35;56.10;;;22.63;;
66609;SDS011;53468;48.276;14.416;2022-12-01T18:17:16;51.05;;;21.88;;
66609;SDS011;53468;48.276;14.416;2022-12-01T18:22:59;48.33;;;22.15;;
66609;SDS011;53468;48.276;14.416;2022-12-01T18:35:14;53.45;;;22.90;;
66609;SDS011;53468;48.276;14.416;2022-12-01T18:40:47;47.90;;;21.77;;
66609;SDS011;53468;48.276;14.416;2022-12-01T18:46:19;48.42;;;21.98;;
66609;SDS011;53468;48.276;14.416;2022-12-01T18:51:56;55.33;;;24.17;;
66609;SDS011;53468;48.276;14.416;2022-12-01T18:57:34;42.30;;;20.33;;
66609;SDS011;53468;48.276;14.416;2022-12-01T19:03:08;45.47;;;21.60;;
66609;SDS011;53468;48.276;14.416;2022-12-01T19:08:42;49.33;;;22.30;;
66609;SDS011;53468;48.276;14.416;2022-12-01T19:14:15;51.15;;;22.13;;
66609;SDS011;53468;48.276;14.416;2022-12-01T19:19:50;52.90;;;22.25;;
66609;SDS011;53468;48.276;14.416;2022-12-01T19:38:24;46.53;;;21.88;;
66609;SDS011;53468;48.276;14.416;2022-12-01T19:44:15;48.55;;;22.30;;
66609;SDS011;53468;48.276;14.416;2022-12-01T19:50:04;43.55;;;21.40;;
66609;SDS011;53468;48.276;14.416;2022-12-01T19:56:31;50.08;;;21.05;;
66609;SDS011;53468;48.276;14.416;2022-12-01T20:02:31;50.03;;;22.02;;
66609;SDS011;53468;48.276;14.416;2022-12-01T20:08:25;52.63;;;21.33;;
66609;SDS011;53468;48.276;14.416;2022-12-01T20:14:35;57.88;;;25.35;;
66609;SDS011;53468;48.276;14.416;2022-12-01T20:20:33;58.03;;;24.17;;
66609;SDS011;53468;48.276;14.416;2022-12-01T20:26:51;45.80;;;21.33;;
66609;SDS011;53468;48.276;14.416;2022-12-01T20:32:52;44.47;;;21.95;;
66609;SDS011;53468;48.276;14.416;2022-12-01T20:38:43;45.00;;;20.58;;
66609;SDS011;53468;48.276;14.416;2022-12-01T20:44:23;52.42;;;21.92;;
66609;SDS011;53468;48.276;14.416;2022-12-01T20:50:01;43.20;;;19.83;;
66609;SDS011;53468;48.276;14.416;2022-12-01T20:55:37;50.97;;;20.80;;
66609;SDS011;53468;48.276;14.416;2022-12-01T21:01:14;48.53;;;20.77;;
66609;SDS011;53468;48.276;14.416;2022-12-01T21:07:15;50.67;;;22.30;;
66609;SDS011;53468;48.276;14.416;2022-12-01T21:12:55;45.70;;;19.45;;
66609;SDS011;53468;48.276;14.416;2022-12-01T21:18:51;53.42;;;23.65;;
66609;SDS011;53468;48.276;14.416;2022-12-01T21:24:32;48.63;;;19.75;;
66609;SDS011;53468;48.276;14.416;2022-12-01T21:30:06;41.00;;;20.25;;
66609;SDS011;53468;48.276;14.416;2022-12-01T21:41:23;45.60;;;20.25;;
66609;SDS011;53468;48.276;14.416;2022-12-01T21:46:57;44.95;;;19.90;;
66609;SDS011;53468;48.276;14.416;2022-12-01T21:52:31;43.05;;;17.77;;
66609;SDS011;53468;48.276;14.416;2022-12-01T21:58:21;40.45;;;17.73;;
66609;SDS011;53468;48.276;14.416;2022-12-01T22:03:57;34.70;;;17.20;;
66609;SDS011;53468;48.276;14.416;2022-12-01T22:09:30;41.85;;;20.70;;
66609;SDS011;53468;48.276;14.416;2022-12-01T22:15:27;37.38;;;19.35;;
66609;SDS011;53468;48.276;14.416;2022-12-01T22:21:30;38.15;;;19.33;;
66609;SDS011;53468;48.276;14.416;2022-12-01T22:27:26;40.08;;;17.80;;
66609;SDS011;53468;48.276;14.416;2022-12-01T22:33:01;39.97;;;17.45;;
66609;SDS011;53468;48.276;14.416;2022-12-01T22:38:34;35.85;;;16.25;;
66609;SDS011;53468;48.276;14.416;2022-12-01T22:44:08;42.53;;;18.30;;
66609;SDS011;53468;48.276;14.416;2022-12-01T22:49:44;37.08;;;16.65;;
66609;SDS011;53468;48.276;14.416;2022-12-01T22:55:16;36.53;;;17.00;;
66609;SDS011;53468;48.276;14.416;2022-12-01T23:00:50;37.28;;;18.20;;
66609;SDS011;53468;48.276;14.416;2022-12-01T23:12:27;36.75;;;18.70;;
66609;SDS011;53468;48.276;14.416;2022-12-01T23:18:05;40.47;;;16.52;;
66609;SDS011;53468;48.276;14.416;2022-12-01T23:23:43;42.00;;;19.03;;
66609;SDS011;53468;48.276;14.416;2022-12-01T23:29:15;34.90;;;16.73;;
66609;SDS011;53468;48.276;14.416;2022-12-01T23:34:47;43.50;;;19.67;;
66609;SDS011;53468;48.276;14.416;2022-12-01T23:40:22;41.75;;;20.25;;
66609;SDS011;53468;48.276;14.416;2022-12-01T23:46:01;35.63;;;17.83;;
66609;SDS011;53468;48.276;14.416;2022-12-01T23:51:37;41.55;;;19.17;;
66609;SDS011;53468;48.276;14.416;2022-12-01T23:57:15;38.55;;;18.42;;
